Terminal Aerodrome Forecast
Issued by NWS Springfield, MO

Home | Current Version | Previous Version | Text Only | Print | Product List | Glossary On
Versions: 1 2 3 4 5 6 7 8 9 10 11 12 13 14 15 16 17 18 19
091
FTUS43 KSGF 181120
TAFSGF
TAF
KSGF 181120Z 1812/1912 15008KT P6SM BKN100 OVC250
     FM181500 20006KT P6SM BKN070
     FM182000 23006KT P6SM SCT060 BKN250
     FM190500 17005KT P6SM SCT250
     FM190900 16006KT 5SM BR BKN010=

USA.gov is the U.S. government's official web portal to all federal, state and local government web resources and services.